Time;durP1;ratioP1;P1;durP2;ratioP2;P2;SDS_P1;SDS_P2;PMS_P1;PMS_P2;Temp;Humidity;BMP_temperature;BMP_pressure;BME280_temperature;BME280_humidity;BME280_pressure;Samples;Min_cycle;Max_cycle;Signal;HPM_P1;HPM_P2
2022/03/12 00:00:35;;;;;;;36.75;18.45;;;;;;;13.28;39.21;101236.47;4996999;28;20541;-53
2022/03/12 00:03:00;;;;;;;37.83;18.45;;;;;;;13.12;39.29;101246.75;4981118;28;20566;-55
2022/03/12 00:05:27;;;;;;;32.80;18.67;;;;;;;13.20;38.97;101243.38;4991189;28;20049;-56
2022/03/12 00:07:52;;;;;;;33.55;17.90;;;;;;;13.21;39.20;101247.75;4996253;28;20072;-54
2022/03/12 00:10:21;;;;;;;35.30;18.30;;;;;;;13.13;39.49;101259.03;4993678;28;20689;-56
2022/03/12 00:12:47;;;;;;;33.10;17.70;;;;;;;13.05;39.83;101252.81;4989052;28;20536;-56
2022/03/12 00:15:14;;;;;;;33.45;18.20;;;;;;;13.08;41.09;101255.47;4978622;28;20644;-55
2022/03/12 00:17:43;;;;;;;32.75;18.30;;;;;;;13.10;40.99;101259.84;4994782;28;20494;-56
2022/03/12 00:20:12;;;;;;;32.38;17.60;;;;;;;13.01;41.37;101259.75;4977531;28;20524;-54
2022/03/12 00:22:39;;;;;;;37.13;18.85;;;;;;;13.06;42.28;101255.44;4996039;28;20231;-54
2022/03/12 00:25:07;;;;;;;34.45;18.83;;;;;;;12.94;42.90;101271.91;4983962;28;20367;-53
2022/03/12 00:27:32;;;;;;;34.80;18.35;;;;;;;12.84;43.66;101272.69;4994567;28;20076;-55
2022/03/12 00:30:00;;;;;;;34.47;18.67;;;;;;;12.89;43.64;101278.81;4996366;28;20737;-56
2022/03/12 00:32:26;;;;;;;33.10;18.63;;;;;;;12.88;43.65;101282.31;4993199;28;20124;-56
2022/03/12 00:34:52;;;;;;;36.22;19.05;;;;;;;12.96;44.33;101282.38;4988437;28;20073;-55
2022/03/12 00:37:19;;;;;;;38.42;19.13;;;;;;;12.97;45.63;101281.53;4998047;28;20158;-56
2022/03/12 00:39:47;;;;;;;35.63;19.17;;;;;;;12.89;47.34;101286.69;4988497;28;20638;-57
2022/03/12 00:42:13;;;;;;;33.13;18.27;;;;;;;12.77;46.38;101290.91;4993115;28;20155;-56
2022/03/12 00:44:38;;;;;;;34.97;19.70;;;;;;;12.73;47.99;101294.34;4994990;28;20239;-55
2022/03/12 00:47:04;;;;;;;36.03;20.02;;;;;;;12.65;48.89;101296.88;4991447;28;20033;-55
2022/03/12 00:49:29;;;;;;;37.08;20.63;;;;;;;12.47;51.12;101286.19;4988360;28;20041;-56
2022/03/12 00:51:55;;;;;;;36.97;20.33;;;;;;;12.28;51.09;101285.09;4982947;28;20069;-54
2022/03/12 00:54:21;;;;;;;39.30;20.98;;;;;;;12.27;51.08;101290.28;4983355;28;20099;-54
2022/03/12 00:56:47;;;;;;;36.47;18.98;;;;;;;12.33;50.43;101291.25;4995306;28;20100;-52
2022/03/12 00:59:13;;;;;;;34.78;19.80;;;;;;;12.30;51.68;101287.72;4981139;28;20444;-55
2022/03/12 01:01:46;;;;;;;38.83;20.02;;;;;;;12.33;50.71;101295.59;5002896;28;20067;-54
2022/03/12 01:04:11;;;;;;;34.92;18.35;;;;;;;12.31;50.24;101294.72;4995536;28;20049;-56
2022/03/12 01:06:38;;;;;;;33.63;18.02;;;;;;;12.39;49.41;101298.28;4999280;28;20279;-55
2022/03/12 01:09:04;;;;;;;34.60;18.55;;;;;;;12.44;49.78;101307.94;4991141;28;20045;-54
2022/03/12 01:11:30;;;;;;;33.05;18.45;;;;;;;12.42;50.40;101299.22;4999693;28;20046;-53
2022/03/12 01:13:55;;;;;;;31.35;17.88;;;;;;;12.40;51.56;101298.31;4997355;28;20072;-55
2022/03/12 01:16:21;;;;;;;31.77;17.70;;;;;;;12.35;52.31;101297.38;4999019;28;20041;-55
2022/03/12 01:18:47;;;;;;;37.80;18.50;;;;;;;12.30;52.50;101299.06;4987823;28;20080;-54
2022/03/12 01:21:17;;;;;;;31.30;17.73;;;;;;;12.49;52.05;101300.19;4996496;28;20057;-55
2022/03/12 01:23:50;;;;;;;34.05;18.40;;;;;;;12.42;52.37;101296.59;4995053;28;20053;-55
2022/03/12 01:26:18;;;;;;;32.03;17.45;;;;;;;12.45;52.13;101300.97;5000631;28;20141;-55
2022/03/12 01:28:45;;;;;;;34.17;18.38;;;;;;;12.44;52.40;101292.25;4996348;28;20538;-51
2022/03/12 01:31:10;;;;;;;33.33;17.85;;;;;;;12.38;53.76;101297.41;4997431;28;20096;-56
2022/03/12 01:33:35;;;;;;;32.50;17.25;;;;;;;12.25;54.37;101299.88;4996475;28;20052;-56
2022/03/12 01:36:01;;;;;;;29.27;17.58;;;;;;;12.34;54.67;101294.75;4993904;28;20453;-55
2022/03/12 01:38:32;;;;;;;28.75;17.00;;;;;;;12.44;54.66;101294.88;4998183;28;20146;-56
2022/03/12 01:41:02;;;;;;;30.48;17.65;;;;;;;12.44;54.53;101297.47;4986826;28;20148;-56
2022/03/12 01:43:30;;;;;;;29.92;16.65;;;;;;;12.40;54.76;101295.69;4995909;28;20574;-54
2022/03/12 01:46:00;;;;;;;30.00;17.42;;;;;;;12.27;55.27;101288.56;5001952;28;20444;-56
2022/03/12 01:48:26;;;;;;;30.15;16.42;;;;;;;12.39;55.14;101283.47;4996262;28;20069;-54
2022/03/12 01:50:52;;;;;;;30.17;16.42;;;;;;;12.36;55.77;101287.81;4988863;28;20132;-54
2022/03/12 01:53:17;;;;;;;28.17;16.38;;;;;;;12.36;55.94;101291.31;4997700;28;20064;-54
2022/03/12 01:55:43;;;;;;;27.05;16.02;;;;;;;12.36;56.20;101301.75;4989627;28;20509;-55
2022/03/12 01:58:09;;;;;;;29.35;15.60;;;;;;;12.33;56.26;101300.81;4998264;28;20393;-56
2022/03/12 02:00:41;;;;;;;28.08;15.07;;;;;;;12.36;56.55;101300.88;4996233;28;20137;-56
2022/03/12 02:03:08;;;;;;;25.23;14.98;;;;;;;12.42;56.15;101301.84;4988785;28;20588;-53
2022/03/12 02:05:34;;;;;;;28.00;15.32;;;;;;;12.45;56.10;101299.25;4982995;28;20140;-54
2022/03/12 02:08:00;;;;;;;29.20;15.80;;;;;;;12.48;56.14;101312.38;4996513;28;20332;-52
2022/03/12 02:10:26;;;;;;;29.35;15.45;;;;;;;12.45;56.21;101303.59;4998349;28;20187;-55
2022/03/12 02:12:51;;;;;;;27.02;14.63;;;;;;;12.54;56.22;101307.22;4984998;28;20033;-55
2022/03/12 02:15:20;;;;;;;25.60;15.40;;;;;;;12.53;56.09;101307.19;4997875;28;20157;-55
2022/03/12 02:17:45;;;;;;;24.42;14.30;;;;;;;12.49;56.21;101308.91;4996167;28;20250;-57
2022/03/12 02:20:13;;;;;;;26.42;14.93;;;;;;;12.58;55.85;101309.00;4984532;28;20563;-56
2022/03/12 02:22:39;;;;;;;26.17;15.02;;;;;;;12.55;56.27;101318.56;4995038;28;20041;-53
2022/03/12 02:25:04;;;;;;;24.90;14.18;;;;;;;12.64;56.39;101316.03;4991535;28;20048;-54
2022/03/12 02:27:31;;;;;;;23.13;13.52;;;;;;;12.58;56.80;101318.59;5003092;28;20041;-53
2022/03/12 02:29:59;;;;;;;24.48;13.80;;;;;;;12.74;56.51;101323.16;4998432;28;20617;-55
2022/03/12 02:32:25;;;;;;;22.45;13.35;;;;;;;12.76;56.52;101318.81;4987552;28;20064;-55
2022/03/12 02:34:51;;;;;;;22.92;12.90;;;;;;;12.87;56.52;101326.75;4994302;28;20059;-55
2022/03/12 02:37:30;;;;;;;22.13;12.85;;;;;;;12.90;57.10;101321.56;4995480;28;20148;-56
2022/03/12 02:40:07;;;;;;;20.52;12.30;;;;;;;12.86;57.28;101331.16;4998677;28;20382;-55
2022/03/12 02:42:34;;;;;;;22.35;12.07;;;;;;;12.98;57.18;101325.16;4998426;28;20076;-56
2022/03/12 02:45:00;;;;;;;20.92;12.18;;;;;;;12.93;57.44;101327.72;4989901;28;20049;-55
2022/03/12 02:47:30;;;;;;;19.73;11.40;;;;;;;12.92;57.29;101320.75;4991473;28;20046;-55
2022/03/12 02:49:59;;;;;;;18.27;11.65;;;;;;;12.91;57.79;101326.84;4998317;28;20046;-54
2022/03/12 02:52:27;;;;;;;19.85;11.27;;;;;;;12.85;57.80;101331.13;4988416;28;20084;-55
2022/03/12 02:54:58;;;;;;;17.70;11.35;;;;;;;12.86;57.88;101325.91;4997523;28;20049;-55
2022/03/12 02:57:27;;;;;;;20.05;12.23;;;;;;;12.87;57.76;101327.66;4997446;28;20050;-53
2022/03/12 03:00:00;;;;;;;21.55;11.45;;;;;;;12.80;58.12;101327.59;4993779;28;20041;-55
2022/03/12 03:02:33;;;;;;;20.45;11.48;;;;;;;12.80;58.06;101323.22;4989883;28;20029;-55
2022/03/12 03:04:58;;;;;;;19.73;11.50;;;;;;;12.80;57.93;101319.72;4991585;28;20056;-55
2022/03/12 03:07:24;;;;;;;19.27;11.30;;;;;;;12.90;57.81;101324.19;4994022;28;20483;-54
2022/03/12 03:09:50;;;;;;;20.00;11.65;;;;;;;12.85;57.68;101328.50;4992505;28;20073;-56
2022/03/12 03:12:15;;;;;;;19.92;11.50;;;;;;;12.90;57.68;101332.94;4978829;28;20584;-55
2022/03/12 03:14:48;;;;;;;17.55;11.27;;;;;;;12.84;57.76;101334.59;4995616;28;20053;-56
2022/03/12 03:17:15;;;;;;;18.52;11.02;;;;;;;12.90;57.64;101342.50;4993134;28;20041;-56
2022/03/12 03:19:41;;;;;;;18.27;11.93;;;;;;;12.87;57.68;101338.09;4997040;28;20130;-56
2022/03/12 03:22:08;;;;;;;17.80;10.63;;;;;;;12.88;57.33;101336.38;4992362;28;21270;-55
2022/03/12 03:24:34;;;;;;;18.90;11.50;;;;;;;12.85;57.46;101337.25;4978392;28;20080;-55
2022/03/12 03:27:01;;;;;;;18.75;11.18;;;;;;;12.86;57.82;101341.63;4990149;28;20175;-56
2022/03/12 03:29:29;;;;;;;18.10;11.18;;;;;;;12.78;57.69;101338.03;4995508;28;20531;-55
2022/03/12 03:31:55;;;;;;;19.40;11.38;;;;;;;12.77;58.20;101338.88;4994818;28;20045;-53
2022/03/12 03:34:26;;;;;;;19.55;10.75;;;;;;;12.86;58.04;101338.13;4995537;28;20526;-55
2022/03/12 03:36:52;;;;;;;16.55;10.15;;;;;;;12.77;58.11;101338.00;4989620;28;20041;-54
2022/03/12 03:39:17;;;;;;;18.92;10.15;;;;;;;12.84;58.38;101340.72;4994639;28;20595;-55
2022/03/12 03:41:43;;;;;;;16.20;9.40;;;;;;;12.87;58.59;101350.31;4993567;28;20128;-57
2022/03/12 03:44:09;;;;;;;16.65;9.02;;;;;;;12.93;58.62;101347.75;4993705;28;20543;-54
2022/03/12 03:46:35;;;;;;;13.45;8.50;;;;;;;12.95;58.65;101356.53;4990093;28;20049;-54
2022/03/12 03:49:02;;;;;;;12.93;8.07;;;;;;;12.93;58.82;101355.63;4978321;28;20444;-54
2022/03/12 03:51:28;;;;;;;12.40;7.90;;;;;;;12.93;59.01;101360.84;4991452;28;20102;-55
2022/03/12 03:53:53;;;;;;;13.20;7.60;;;;;;;12.94;59.45;101357.38;4993449;28;20564;-58
2022/03/12 03:56:20;;;;;;;11.30;7.20;;;;;;;12.93;59.29;101360.84;4990403;28;20053;-55
2022/03/12 03:58:45;;;;;;;12.80;7.15;;;;;;;12.99;59.31;101361.81;4993991;28;20273;-51
2022/03/12 04:01:15;;;;;;;11.30;6.85;;;;;;;13.05;59.04;101353.16;4991061;28;20038;-55
2022/03/12 04:03:44;;;;;;;10.00;6.70;;;;;;;12.98;59.42;101364.44;4997021;28;20049;-56
2022/03/12 04:06:10;;;;;;;11.30;6.90;;;;;;;12.96;59.32;101361.78;4976442;28;20149;-52
2022/03/12 04:08:35;;;;;;;11.35;7.05;;;;;;;12.94;59.22;101360.88;4996513;28;20466;-56
2022/03/12 04:11:05;;;;;;;11.60;6.60;;;;;;;12.91;59.94;101368.72;4968636;28;20457;-55
2022/03/12 04:13:31;;;;;;;9.23;6.25;;;;;;;12.89;59.68;101373.03;4994349;28;20513;-55
2022/03/12 04:16:00;;;;;;;9.68;6.45;;;;;;;12.85;59.85;101368.63;4995357;28;20188;-54
2022/03/12 04:18:26;;;;;;;10.32;6.28;;;;;;;12.96;59.68;101372.25;4993838;28;20052;-55
2022/03/12 04:20:52;;;;;;;8.70;6.03;;;;;;;12.91;59.87;101376.56;4987517;28;20123;-55
2022/03/12 04:23:21;;;;;;;10.25;6.28;;;;;;;12.97;59.59;101383.59;4998614;28;20392;-53
2022/03/12 04:25:51;;;;;;;9.15;6.10;;;;;;;12.97;59.54;101381.88;4994094;28;20045;-55
2022/03/12 04:28:17;;;;;;;10.00;6.20;;;;;;;12.93;59.49;101382.66;4996802;28;20409;-53
2022/03/12 04:30:44;;;;;;;9.70;6.28;;;;;;;12.72;60.31;101379.81;4993670;28;20153;-55
2022/03/12 04:33:10;;;;;;;10.43;6.15;;;;;;;12.86;59.88;101385.22;4988880;28;20046;-52
2022/03/12 04:35:36;;;;;;;8.68;5.90;;;;;;;12.86;59.55;101380.88;4999857;28;20582;-55
2022/03/12 04:38:03;;;;;;;10.32;6.47;;;;;;;12.77;59.50;101377.25;4996395;28;20061;-54
2022/03/12 04:40:29;;;;;;;11.07;6.80;;;;;;;12.58;60.37;101387.47;4987261;28;20475;-52
2022/03/12 04:42:54;;;;;;;9.45;5.93;;;;;;;12.50;60.04;101390.84;4990115;28;20483;-50
2022/03/12 04:45:23;;;;;;;11.65;6.15;;;;;;;12.33;61.12;101387.97;4994078;28;20197;-53
2022/03/12 04:47:50;;;;;;;11.30;6.70;;;;;;;12.28;61.26;101386.16;4997202;28;20138;-55
2022/03/12 04:50:17;;;;;;;9.10;6.15;;;;;;;12.18;61.37;101393.00;4994614;28;20107;-56
2022/03/12 04:52:44;;;;;;;9.90;6.47;;;;;;;12.07;61.93;101387.63;4991595;28;20045;-52
2022/03/12 04:55:18;;;;;;;9.48;6.00;;;;;;;12.04;61.78;101404.97;4991151;28;20048;-55
2022/03/12 04:57:44;;;;;;;9.80;6.15;;;;;;;11.89;62.20;101399.50;4994188;28;20046;-52
2022/03/12 05:00:15;;;;;;;9.63;6.05;;;;;;;11.83;62.23;101402.91;4991363;28;20063;-52
2022/03/12 05:02:41;;;;;;;9.60;5.93;;;;;;;11.78;62.73;101405.41;4996382;28;20042;-55
2022/03/12 05:05:11;;;;;;;11.75;5.95;;;;;;;11.70;63.08;101403.50;4988065;28;21041;-55
2022/03/12 05:07:37;;;;;;;8.18;5.75;;;;;;;11.69;63.78;101409.59;4995247;28;20476;-53
2022/03/12 05:10:07;;;;;;;8.10;5.85;;;;;;;11.73;63.04;101414.91;4974545;28;20053;-54
2022/03/12 05:12:33;;;;;;;8.85;5.72;;;;;;;11.67;63.57;101411.28;4987494;28;21112;-53
2022/03/12 05:14:58;;;;;;;8.77;5.30;;;;;;;11.73;63.27;101420.13;4985578;28;20136;-52
2022/03/12 05:17:26;;;;;;;10.10;5.55;;;;;;;11.64;63.31;101416.47;4993757;28;20927;-54
2022/03/12 05:19:54;;;;;;;9.73;5.40;;;;;;;11.62;63.43;101416.44;4990268;28;20424;-51
2022/03/12 05:22:19;;;;;;;9.18;5.90;;;;;;;11.68;63.50;101411.31;4995568;28;20102;-58
2022/03/12 05:24:45;;;;;;;7.97;5.20;;;;;;;11.67;62.92;101413.91;4991687;28;20570;-54
2022/03/12 05:27:14;;;;;;;8.88;5.57;;;;;;;11.57;63.77;101423.31;4994861;28;20040;-55
2022/03/12 05:29:41;;;;;;;9.27;5.22;;;;;;;11.57;63.49;101422.44;4991705;28;20064;-53
2022/03/12 05:32:12;;;;;;;9.35;5.13;;;;;;;11.52;63.71;101421.47;4993594;28;20077;-52
2022/03/12 05:34:37;;;;;;;10.43;6.10;;;;;;;11.49;63.92;101418.78;5001316;28;20049;-55
2022/03/12 05:37:03;;;;;;;9.70;5.63;;;;;;;11.42;63.82;101424.75;4986519;28;20330;-53
2022/03/12 05:39:29;;;;;;;10.45;6.18;;;;;;;11.45;63.90;101430.03;4997651;28;20041;-54
2022/03/12 05:41:55;;;;;;;9.93;5.63;;;;;;;11.39;63.77;101430.81;4996659;28;20449;-54
2022/03/12 05:44:22;;;;;;;10.65;5.90;;;;;;;11.26;64.34;101437.53;5002555;28;20080;-53
2022/03/12 05:46:47;;;;;;;8.63;5.60;;;;;;;11.28;64.45;101440.16;4992168;28;20046;-53
2022/03/12 05:49:12;;;;;;;9.30;5.75;;;;;;;11.30;64.80;101441.06;4982149;28;20534;-55
2022/03/12 05:51:42;;;;;;;9.98;5.68;;;;;;;11.27;64.79;101436.69;4996720;28;20507;-52
2022/03/12 05:54:08;;;;;;;9.85;5.88;;;;;;;11.21;64.64;101439.16;4987549;28;20041;-53
2022/03/12 05:56:33;;;;;;;9.40;5.72;;;;;;;11.22;64.86;101438.28;5002139;28;20030;-54
2022/03/12 05:58:59;;;;;;;8.32;5.45;;;;;;;11.17;65.50;101442.53;4987740;28;20037;-53
2022/03/12 06:01:24;;;;;;;8.68;5.70;;;;;;;11.13;65.19;101451.16;4999828;28;20447;-55
2022/03/12 06:03:49;;;;;;;8.80;5.43;;;;;;;11.23;65.08;101449.59;4995092;28;20059;-54
2022/03/12 06:06:15;;;;;;;8.20;5.47;;;;;;;11.19;65.28;101461.72;4999967;28;20041;-55
2022/03/12 06:08:40;;;;;;;9.90;5.70;;;;;;;11.26;65.39;101462.75;4995091;28;20052;-52
2022/03/12 06:11:06;;;;;;;8.40;5.57;;;;;;;11.36;64.87;101456.84;4992233;28;20164;-55
2022/03/12 06:13:32;;;;;;;9.18;5.50;;;;;;;11.45;64.31;101457.03;4994121;28;20060;-54
2022/03/12 06:15:58;;;;;;;9.43;5.53;;;;;;;11.45;64.12;101463.97;4999357;28;20444;-56
2022/03/12 06:18:29;;;;;;;10.43;5.57;;;;;;;11.44;64.25;101470.03;4996705;28;20116;-53
2022/03/12 06:20:55;;;;;;;12.43;6.10;;;;;;;11.51;63.99;101471.94;4988999;28;20593;-53
2022/03/12 06:23:20;;;;;;;8.70;5.28;;;;;;;11.48;64.15;101474.47;4991581;28;20037;-56
2022/03/12 06:25:46;;;;;;;9.30;5.70;;;;;;;11.53;63.83;101465.88;4995731;28;20048;-56
2022/03/12 06:28:11;;;;;;;9.48;5.57;;;;;;;11.56;63.58;101470.28;4996743;28;20041;-55
2022/03/12 06:30:38;;;;;;;11.25;5.82;;;;;;;11.52;63.50;101474.56;4997125;28;20042;-57
2022/03/12 06:33:05;;;;;;;8.65;5.82;;;;;;;11.58;63.80;101485.13;4971176;28;20293;-55
2022/03/12 06:35:31;;;;;;;9.75;5.80;;;;;;;11.62;63.15;101475.63;4998803;28;20159;-54
2022/03/12 06:37:56;;;;;;;9.77;5.70;;;;;;;11.74;62.96;101475.88;4994482;28;20496;-56
2022/03/12 06:40:28;;;;;;;9.27;5.55;;;;;;;11.83;62.28;101477.78;4997744;28;20504;-52
2022/03/12 06:42:59;;;;;;;11.88;5.75;;;;;;;11.93;61.80;101477.09;4990008;28;20520;-56
2022/03/12 06:45:25;;;;;;;8.98;5.63;;;;;;;11.99;61.76;101485.91;4992472;28;20412;-54
2022/03/12 06:47:51;;;;;;;10.48;5.45;;;;;;;12.04;61.44;101488.59;4998712;28;20037;-53
2022/03/12 06:50:21;;;;;;;11.25;5.57;;;;;;;12.08;61.27;101487.78;4995155;28;20286;-57
2022/03/12 06:52:48;;;;;;;8.82;5.40;;;;;;;12.12;61.57;101487.00;4991159;28;20493;-54
2022/03/12 06:55:20;;;;;;;8.25;5.53;;;;;;;12.17;61.07;101499.28;4979014;28;20048;-55
2022/03/12 06:57:47;;;;;;;10.18;5.38;;;;;;;12.22;61.05;101506.31;4989946;28;20413;-56
2022/03/12 07:00:18;;;;;;;10.95;6.20;;;;;;;12.34;60.63;101502.19;4983993;28;20045;-52
2022/03/12 07:02:44;;;;;;;9.38;5.70;;;;;;;12.43;60.25;101504.06;4997699;28;20045;-55
2022/03/12 07:05:11;;;;;;;8.95;5.25;;;;;;;12.63;59.87;101499.13;4994134;28;20503;-55
2022/03/12 07:07:36;;;;;;;11.07;5.78;;;;;;;12.71;59.67;101506.25;4996354;28;20080;-54
2022/03/12 07:10:04;;;;;;;10.18;5.63;;;;;;;12.73;59.61;101511.50;4999417;28;20112;-56
2022/03/12 07:12:29;;;;;;;10.52;6.00;;;;;;;12.83;59.48;101521.22;4991255;28;20156;-54
2022/03/12 07:14:55;;;;;;;8.65;5.40;;;;;;;12.91;59.20;101530.97;4986677;28;20041;-54
2022/03/12 07:17:20;;;;;;;9.98;6.03;;;;;;;12.97;59.25;101525.81;4997449;28;21322;-51
2022/03/12 07:19:45;;;;;;;11.80;6.20;;;;;;;13.21;58.62;101529.66;4995955;28;20037;-55
2022/03/12 07:22:11;;;;;;;9.35;5.93;;;;;;;13.30;58.12;101541.09;4996898;28;20492;-57
2022/03/12 07:24:37;;;;;;;12.55;6.28;;;;;;;13.47;57.49;101540.47;4994393;28;20519;-55
2022/03/12 07:27:03;;;;;;;9.18;5.90;;;;;;;13.50;57.50;101553.59;4990432;28;20091;-53
2022/03/12 07:29:31;;;;;;;10.63;6.22;;;;;;;13.49;57.78;101552.69;4996670;28;20392;-56
2022/03/12 07:31:56;;;;;;;10.32;6.20;;;;;;;13.57;57.38;101548.44;4998733;28;20085;-52
2022/03/12 07:34:22;;;;;;;14.27;6.43;;;;;;;13.47;57.57;101558.78;4998304;28;20158;-57
2022/03/12 07:36:48;;;;;;;9.60;6.28;;;;;;;13.60;57.19;101561.56;4992915;28;20117;-52
2022/03/12 07:39:13;;;;;;;9.52;6.45;;;;;;;13.64;57.04;101558.13;4993773;28;20064;-56
2022/03/12 07:41:39;;;;;;;10.85;6.38;;;;;;;13.58;56.86;101562.41;4992623;28;20045;-55
2022/03/12 07:44:06;;;;;;;11.27;6.13;;;;;;;13.66;56.97;101561.63;4992499;28;20362;-56
2022/03/12 07:46:31;;;;;;;12.57;6.07;;;;;;;13.57;57.16;101568.53;4981554;28;20497;-55
2022/03/12 07:48:57;;;;;;;9.68;6.15;;;;;;;13.54;57.35;101571.97;4990630;28;20156;-55
2022/03/12 07:51:23;;;;;;;10.98;6.18;;;;;;;13.55;57.16;101575.47;4982495;28;20064;-53
2022/03/12 07:53:48;;;;;;;12.63;6.35;;;;;;;13.61;57.04;101584.28;4990312;28;20966;-56
2022/03/12 07:56:14;;;;;;;10.98;6.05;;;;;;;13.75;56.54;101579.22;4994214;28;20531;-56
2022/03/12 07:58:39;;;;;;;14.50;6.32;;;;;;;13.71;56.30;101575.69;4992168;28;20046;-54
2022/03/12 08:01:05;;;;;;;11.75;5.82;;;;;;;13.84;55.76;101575.84;4987195;28;20042;-55
2022/03/12 08:03:31;;;;;;;12.13;6.00;;;;;;;13.97;55.61;101575.06;4990842;28;20045;-54
2022/03/12 08:05:57;;;;;;;8.88;5.57;;;;;;;14.07;55.39;101584.81;4991293;28;20049;-58
2022/03/12 08:08:23;;;;;;;13.88;5.60;;;;;;;14.23;54.87;101584.09;4977287;28;20048;-52
2022/03/12 08:13:34;;;;;;;13.13;5.50;;;;;;;14.57;54.11;101595.84;4989997;28;20146;-54
2022/03/12 08:15:59;;;;;;;9.20;5.38;;;;;;;14.79;53.09;101603.00;4994847;28;20045;-56
2022/03/12 08:18:25;;;;;;;14.02;4.72;;;;;;;15.00;52.40;101604.91;4996434;28;20083;-56
2022/03/12 08:20:50;;;;;;;11.82;5.13;;;;;;;15.06;52.18;101610.22;4990679;28;20077;-59
2022/03/12 08:23:16;;;;;;;10.10;5.10;;;;;;;14.61;53.51;101615.97;4993378;28;20112;-51
2022/03/12 08:25:42;;;;;;;10.85;5.00;;;;;;;14.92;52.36;101612.72;4995309;28;20370;-55
2022/03/12 08:28:08;;;;;;;10.43;5.28;;;;;;;14.87;52.66;101617.06;4990749;28;20056;-52
2022/03/12 08:30:35;;;;;;;10.40;5.03;;;;;;;15.23;51.71;101624.31;4995137;28;20033;-55
2022/03/12 08:33:01;;;;;;;9.55;5.05;;;;;;;15.35;51.34;101619.13;4982669;28;20072;-56
2022/03/12 08:35:26;;;;;;;11.32;5.10;;;;;;;15.27;51.07;101618.22;4992602;28;20050;-51
2022/03/12 08:37:52;;;;;;;9.02;4.53;;;;;;;14.91;51.82;101617.97;4994561;28;20512;-56
2022/03/12 08:40:17;;;;;;;11.23;5.28;;;;;;;15.34;50.86;101627.88;4992530;28;20041;-53
2022/03/12 08:42:43;;;;;;;8.63;4.50;;;;;;;15.54;50.23;101627.16;4997472;28;20103;-53
2022/03/12 08:45:11;;;;;;;7.88;4.90;;;;;;;15.30;50.71;101627.88;4989346;28;20076;-56
2022/03/12 08:47:41;;;;;;;10.35;4.90;;;;;;;15.43;50.95;101629.66;4996569;28;20037;-56
2022/03/12 08:50:08;;;;;;;11.23;4.90;;;;;;;15.24;51.05;101633.97;4988682;28;20050;-54
2022/03/12 08:52:37;;;;;;;8.63;4.70;;;;;;;15.17;50.91;101649.66;4992288;28;20127;-54
2022/03/12 08:55:04;;;;;;;7.22;4.53;;;;;;;15.35;50.69;101644.53;4985416;28;20041;-52
2022/03/12 08:57:30;;;;;;;9.63;5.00;;;;;;;15.45;50.52;101664.72;4989073;28;20465;-55
2022/03/12 08:59:55;;;;;;;9.55;4.40;;;;;;;15.56;49.89;101651.69;4990860;28;20524;-56
2022/03/12 09:02:21;;;;;;;10.45;4.50;;;;;;;15.24;50.58;101661.97;4993287;28;20080;-55
2022/03/12 09:04:47;;;;;;;8.60;4.53;;;;;;;14.92;50.94;101662.63;4988288;28;20041;-52
2022/03/12 09:07:12;;;;;;;8.85;4.53;;;;;;;15.08;50.59;101663.59;4969705;28;20417;-56
2022/03/12 09:09:38;;;;;;;9.50;4.65;;;;;;;15.08;50.75;101658.34;4990850;28;20833;-56
2022/03/12 09:12:04;;;;;;;8.73;4.40;;;;;;;15.15;50.92;101654.03;4999228;28;20361;-55
2022/03/12 09:14:34;;;;;;;11.10;4.60;;;;;;;15.31;50.10;101650.63;4989003;28;20399;-56
2022/03/12 09:17:00;;;;;;;9.05;4.72;;;;;;;15.23;50.13;101653.22;4984168;28;20684;-51
2022/03/12 09:19:25;;;;;;;9.80;4.85;;;;;;;15.16;50.59;101659.28;4981888;28;20421;-54
2022/03/12 09:21:51;;;;;;;7.57;4.25;;;;;;;15.26;49.95;101652.34;4992839;28;20173;-55
2022/03/12 09:24:17;;;;;;;12.05;4.47;;;;;;;15.21;50.19;101652.31;4995269;28;20489;-56
2022/03/12 09:26:43;;;;;;;12.18;4.28;;;;;;;15.20;50.56;101647.94;4996826;28;20037;-56
2022/03/12 09:29:08;;;;;;;13.88;3.90;;;;;;;15.29;49.74;101649.75;4994666;28;20128;-56
2022/03/12 09:31:34;;;;;;;7.22;3.90;;;;;;;15.50;48.80;101651.59;4996479;28;20704;-53
2022/03/12 09:34:02;;;;;;;6.88;3.70;;;;;;;15.44;48.90;101652.44;4995606;28;20917;-53
2022/03/12 09:36:28;;;;;;;8.48;3.72;;;;;;;15.61;48.72;101661.38;4996942;28;20038;-57
2022/03/12 09:38:53;;;;;;;7.47;3.65;;;;;;;15.69;48.50;101650.88;4986124;28;20625;-56
2022/03/12 09:41:19;;;;;;;7.72;3.40;;;;;;;15.64;48.32;101649.97;4994635;28;21281;-56
2022/03/12 09:43:45;;;;;;;9.80;3.80;;;;;;;15.67;48.59;101657.88;4980967;28;20053;-56
2022/03/12 09:46:10;;;;;;;8.13;3.80;;;;;;;15.75;47.91;101657.03;4995285;28;20029;-57
2022/03/12 09:48:36;;;;;;;16.83;3.30;;;;;;;15.54;47.72;101653.44;4993446;28;20049;-56
2022/03/12 09:51:02;;;;;;;9.10;3.80;;;;;;;15.57;47.97;101661.31;4987294;28;20393;-56
2022/03/12 09:53:27;;;;;;;9.98;3.83;;;;;;;15.69;48.15;101670.16;4992651;28;20370;-55
2022/03/12 09:55:53;;;;;;;10.85;3.83;;;;;;;15.53;48.14;101670.06;4995812;28;20065;-56
2022/03/12 09:58:19;;;;;;;6.40;3.42;;;;;;;15.68;47.29;101670.13;4998059;28;20209;-55
2022/03/12 10:00:44;;;;;;;6.68;3.55;;;;;;;15.73;47.54;101664.06;4989547;28;20644;-57
2022/03/12 10:03:10;;;;;;;7.78;3.60;;;;;;;15.34;48.45;101667.28;4990702;28;20071;-55
2022/03/12 10:05:35;;;;;;;7.70;3.70;;;;;;;15.87;46.94;101674.63;4997289;28;20509;-58
2022/03/12 10:08:01;;;;;;;8.38;3.67;;;;;;;16.02;47.50;101669.44;4993347;28;20044;-55
2022/03/12 10:10:26;;;;;;;8.02;3.70;;;;;;;16.34;47.43;101672.16;4996951;28;20487;-56
2022/03/12 10:12:52;;;;;;;9.00;4.13;;;;;;;16.46;46.38;101677.47;4986549;28;20418;-55
2022/03/12 10:15:19;;;;;;;11.38;3.75;;;;;;;16.47;46.04;101671.28;4994630;28;20056;-56
2022/03/12 10:17:46;;;;;;;9.95;4.10;;;;;;;16.35;45.51;101673.91;4995750;28;20064;-56
2022/03/12 10:20:12;;;;;;;7.90;3.60;;;;;;;16.36;44.57;101680.94;4988997;28;20531;-56
2022/03/12 10:22:38;;;;;;;13.15;4.10;;;;;;;15.99;45.61;101685.19;4991916;28;20037;-54
2022/03/12 10:25:05;;;;;;;9.35;3.80;;;;;;;15.79;46.72;101692.13;4984852;28;20623;-54
2022/03/12 10:27:32;;;;;;;11.30;3.75;;;;;;;15.60;47.25;101692.91;4996873;28;20064;-57
2022/03/12 10:29:57;;;;;;;6.38;3.47;;;;;;;15.84;46.67;101685.13;4994781;28;20040;-57
2022/03/12 10:32:31;;;;;;;10.65;3.85;;;;;;;15.88;47.34;101683.38;4988781;28;20437;-56
2022/03/12 10:34:59;;;;;;;;;;;;;;;15.81;46.89;101686.00;4987120;28;20115;-56
2022/03/12 10:37:31;;;;;;;7.13;3.45;;;;;;;15.69;47.92;101679.78;4996413;28;19960;-53
2022/03/12 10:40:01;;;;;;;9.68;3.60;;;;;;;15.85;46.73;101680.75;4992674;28;20048;-55
2022/03/12 10:42:26;;;;;;;7.43;3.40;;;;;;;16.24;46.39;101687.03;4991433;28;20033;-55
2022/03/12 10:44:52;;;;;;;7.68;3.70;;;;;;;16.35;46.29;101680.91;4987175;28;20534;-58
2022/03/12 10:47:24;;;;;;;8.38;3.25;;;;;;;16.32;46.42;101687.06;4991714;28;20568;-56
2022/03/12 10:50:12;;;;;;;9.30;3.65;;;;;;;16.09;46.71;101683.50;4985286;28;20602;-53
2022/03/12 10:52:46;;;;;;;8.68;3.45;;;;;;;16.34;46.06;101687.09;4994785;28;20075;-56
2022/03/12 10:55:17;;;;;;;9.13;3.83;;;;;;;16.21;46.19;101683.53;4994201;28;20037;-54
2022/03/12 10:58:13;;;;;;;10.10;3.10;;;;;;;16.00;46.89;101691.31;4990954;28;20588;-55
2022/03/12 11:00:50;;;;;;;8.88;3.40;;;;;;;15.91;47.04;101692.19;4989456;28;20037;-53
2022/03/12 11:03:20;;;;;;;14.13;3.75;;;;;;;15.81;46.89;101695.63;4990077;28;20041;-55
2022/03/12 11:05:47;;;;;;;10.05;3.70;;;;;;;15.91;47.47;101693.94;4997260;28;20506;-56
2022/03/12 11:08:20;;;;;;;8.98;3.58;;;;;;;16.20;47.31;101695.81;4994824;28;20489;-53
2022/03/12 11:10:51;;;;;;;8.07;3.35;;;;;;;16.16;47.08;101691.38;4986369;28;20540;-56
2022/03/12 11:13:34;;;;;;;9.35;3.50;;;;;;;16.04;47.24;101693.13;4994194;28;20496;-53
2022/03/12 11:16:24;;;;;;;9.90;3.72;;;;;;;16.04;46.69;101690.50;4970345;28;20053;-56
2022/03/12 11:18:52;;;;;;;8.85;3.10;;;;;;;16.19;45.80;101703.69;4959309;28;20076;-54